ADDS TAF Data INFO
IDs: Format: Raw Decoded Include METARs

Data at: 0915 UTC 20 Jan 2018

KGCK 200854Z AUTO 31007KT 10SM CLR A2970 RMK AO2 SLPNO 55000 $

KGCK 200520Z 2006/2106 18006KT P6SM SCT250
  FM201200 03006KT P6SM SCT250
  FM202100 11007KT P6SM SCT250
  FM210300 10010KT P6SM BKN250